Time;durP1;ratioP1;P1;durP2;ratioP2;P2;SDS_P1;SDS_P2;PMS_P1;PMS_P2;Temp;Humidity;BMP_temperature;BMP_pressure;BME280_temperature;BME280_humidity;BME280_pressure;Samples;Min_cycle;Max_cycle;Signal;HPM_P1;HPM_P2
2023/09/07 00:00:46;;;;;;;;;;;;;;;17.83;71.79;101782.88;5024323;28;2138;-77
2023/09/07 00:03:40;;;;;;;;;;;;;;;17.82;71.73;101775.75;5027131;28;1770;-78
2023/09/07 00:06:32;;;;;;;;;;;;;;;17.83;71.68;101777.44;5030584;28;1974;-77
2023/09/07 00:09:24;;;;;;;;;;;;;;;17.81;71.46;101780.38;5082461;22;3804;-79
2023/09/07 00:12:15;;;;;;;;;;;;;;;17.81;71.48;101785.84;5038010;28;1747;-79
2023/09/07 00:15:08;;;;;;;;;;;;;;;17.81;71.43;101780.38;5045986;28;1821;-76
2023/09/07 00:18:00;;;;;;;;;;;;;;;17.80;71.40;101786.91;5040170;28;1989;-76
2023/09/07 00:20:51;;;;;;;;;;;;;;;17.81;71.67;101785.00;5044644;28;1689;-77
2023/09/07 00:23:43;;;;;;;;;;;;;;;17.80;71.39;101786.09;5042360;28;1728;-76
2023/09/07 00:26:35;;;;;;;;;;;;;;;17.79;71.46;101779.78;5037700;28;2089;-78
2023/09/07 00:29:28;;;;;;;;;;;;;;;17.79;71.68;101778.97;5034567;28;2283;-78
2023/09/07 00:32:19;;;;;;;;;;;;;;;17.79;71.38;101787.13;5033157;28;2510;-76
2023/09/07 00:35:11;;;;;;;;;;;;;;;17.78;71.46;101793.66;5048632;28;2210;-78
2023/09/07 00:38:03;;;;;;;;;;;;;;;17.78;71.45;101794.50;5043457;28;1643;-76
2023/09/07 00:40:55;;;;;;;;;;;;;;;17.79;71.54;101795.31;5052028;28;1601;-78
2023/09/07 00:43:47;;;;;;;;;;;;;;;17.77;71.34;101795.53;5048084;28;1731;-77
2023/09/07 00:46:39;;;;;;;;;;;;;;;17.76;71.34;101795.75;5034288;28;2211;-78
2023/09/07 00:49:31;;;;;;;;;;;;;;;17.77;71.59;101794.72;5030748;28;2236;-78
2023/09/07 00:52:23;;;;;;;;;;;;;;;17.76;71.21;101788.41;5036051;28;2165;-79
2023/09/07 00:55:16;;;;;;;;;;;;;;;17.76;71.53;101787.59;5034553;28;2617;-79
2023/09/07 00:58:07;;;;;;;;;;;;;;;17.75;71.41;101794.94;5030725;28;2242;-77
2023/09/07 01:01:00;;;;;;;;;;;;;;;17.74;71.28;101790.56;5035415;28;2227;-77
2023/09/07 01:03:51;;;;;;;;;;;;;;;17.75;71.49;101777.75;5036178;28;2132;-78
2023/09/07 01:06:43;;;;;;;;;;;;;;;17.74;71.20;101778.84;5035447;28;2570;-76
2023/09/07 01:09:36;;;;;;;;;;;;;;;17.74;71.31;101773.38;5035216;28;2497;-80
2023/09/07 01:12:29;;;;;;;;;;;;;;;17.73;71.19;101767.09;5037556;28;2103;-77
2023/09/07 01:15:20;;;;;;;;;;;;;;;17.74;71.31;101765.22;5029212;28;2179;-78
2023/09/07 01:18:12;;;;;;;;;;;;;;;17.73;71.33;101766.25;5036472;28;2139;-77
2023/09/07 01:21:04;;;;;;;;;;;;;;;17.71;71.36;101761.91;5039097;28;2233;-77
2023/09/07 01:23:57;;;;;;;;;;;;;;;17.70;71.35;101771.13;5035619;28;2179;-77
2023/09/07 01:26:49;;;;;;;;;;;;;;;17.72;70.99;101765.44;5035593;28;2090;-76
2023/09/07 01:29:40;;;;;;;;;;;;;;;17.70;71.07;101765.66;5032791;28;2203;-77
2023/09/07 01:32:32;;;;;;;;;;;;;;;17.68;71.11;101770.53;5037860;28;2263;-77
2023/09/07 01:35:24;;;;;;;;;;;;;;;17.70;71.37;101776.56;5032402;28;2637;-77
2023/09/07 01:38:17;;;;;;;;;;;;;;;17.69;71.07;101772.19;5040248;28;2313;-76
2023/09/07 01:41:08;;;;;;;;;;;;;;;17.69;71.07;101766.75;5034524;28;2175;-76
2023/09/07 01:44:00;;;;;;;;;;;;;;;17.68;71.00;101775.16;5036202;28;2183;-77
2023/09/07 01:46:52;;;;;;;;;;;;;;;17.68;71.08;101767.00;5049017;28;2238;-78
2023/09/07 01:49:44;;;;;;;;;;;;;;;17.67;71.19;101766.13;5041664;28;1758;-77
2023/09/07 01:52:36;;;;;;;;;;;;;;;17.67;71.08;101763.41;5046975;28;1883;-78
2023/09/07 01:55:28;;;;;;;;;;;;;;;17.67;71.15;101759.88;5043615;28;1937;-78
2023/09/07 01:58:20;;;;;;;;;;;;;;;17.66;70.96;101761.78;5048195;28;1642;-78
2023/09/07 02:01:12;;;;;;;;;;;;;;;17.67;70.92;101762.59;5045216;28;5460;-76
2023/09/07 02:04:04;;;;;;;;;;;;;;;17.66;71.10;101775.38;5051236;28;1317;-78
2023/09/07 02:06:56;;;;;;;;;;;;;;;17.64;71.03;101761.16;5053285;28;2057;-75
2023/09/07 02:09:48;;;;;;;;;;;;;;;17.65;70.93;101759.28;5048175;28;1660;-75
2023/09/07 02:12:40;;;;;;;;;;;;;;;17.64;70.91;101750.28;5039585;28;1672;-76
2023/09/07 02:15:33;;;;;;;;;;;;;;;17.64;70.83;101744.00;5040894;28;2172;-76
2023/09/07 02:18:25;;;;;;;;;;;;;;;17.63;70.84;101751.34;5030335;28;5237;-78
2023/09/07 02:21:16;;;;;;;;;;;;;;;17.62;70.87;101754.31;5038788;28;2112;-77
2023/09/07 02:24:08;;;;;;;;;;;;;;;17.63;70.83;101756.78;5038655;28;2091;-76
2023/09/07 02:27:00;;;;;;;;;;;;;;;17.63;70.93;101750.53;5031353;28;2241;-75
2023/09/07 02:29:53;;;;;;;;;;;;;;;17.61;70.86;101748.03;5032894;28;2191;-75
2023/09/07 02:32:44;;;;;;;;;;;;;;;17.61;70.87;101745.31;5034774;28;2640;-76
2023/09/07 02:35:36;;;;;;;;;;;;;;;17.61;70.72;101749.91;5033329;28;2549;-76
2023/09/07 02:38:28;;;;;;;;;;;;;;;17.62;71.02;101757.06;5035347;28;2313;-75
2023/09/07 02:41:20;;;;;;;;;;;;;;;17.61;70.90;101753.47;5031786;28;2215;-76
2023/09/07 02:44:12;;;;;;;;;;;;;;;17.60;70.85;101746.38;5036189;28;2145;-77
2023/09/07 02:47:04;;;;;;;;;;;;;;;17.60;71.03;101746.38;5032020;28;2231;-77
2023/09/07 02:49:56;;;;;;;;;;;;;;;17.60;70.97;101748.28;5033550;28;2171;-77
2023/09/07 02:52:48;;;;;;;;;;;;;;;17.59;70.70;101746.59;5033028;28;2283;-76
2023/09/07 02:55:40;;;;;;;;;;;;;;;17.59;70.70;101752.03;5039411;28;2211;-75
2023/09/07 02:58:33;;;;;;;;;;;;;;;17.60;70.93;101748.28;5032841;28;2590;-78
2023/09/07 03:01:24;;;;;;;;;;;;;;;17.58;70.91;101736.78;5033520;28;2474;-76
2023/09/07 03:04:16;;;;;;;;;;;;;;;17.57;70.64;101737.84;5034807;28;2127;-77
2023/09/07 03:07:09;;;;;;;;;;;;;;;17.57;70.66;101733.22;5031766;28;2216;-75
2023/09/07 03:10:00;;;;;;;;;;;;;;;17.57;70.67;101735.13;5038706;28;2486;-75
2023/09/07 03:12:52;;;;;;;;;;;;;;;17.57;70.62;101737.84;5034874;28;2260;-78
2023/09/07 03:15:44;;;;;;;;;;;;;;;17.56;70.65;101737.03;5030984;28;2277;-77
2023/09/07 03:18:35;;;;;;;;;;;;;;;17.56;70.62;101733.47;5031017;28;2629;-77
2023/09/07 03:21:29;;;;;;;;;;;;;;;17.56;70.86;101744.34;5034431;28;2175;-79
2023/09/07 03:24:20;;;;;;;;;;;;;;;17.55;70.63;101748.16;5032537;28;2242;-76
2023/09/07 03:27:12;;;;;;;;;;;;;;;17.55;70.70;101759.03;5031857;28;3826;-77
2023/09/07 03:30:05;;;;;;;;;;;;;;;17.54;70.61;101746.50;5034251;28;2120;-79
2023/09/07 03:32:56;;;;;;;;;;;;;;;17.53;70.80;101756.56;5033056;28;2366;-77
2023/09/07 03:35:47;;;;;;;;;;;;;;;17.54;70.55;101747.31;5034719;28;2645;-78
2023/09/07 03:38:39;;;;;;;;;;;;;;;17.53;70.54;101751.13;5031392;28;2255;-78
2023/09/07 03:41:31;;;;;;;;;;;;;;;17.53;70.64;101750.28;5038283;28;2364;-78
2023/09/07 03:44:23;;;;;;;;;;;;;;;17.52;70.58;101749.44;5045317;28;2222;-77
2023/09/07 03:47:16;;;;;;;;;;;;;;;17.53;70.54;101744.81;5042291;28;2190;-78
2023/09/07 03:50:07;;;;;;;;;;;;;;;17.52;70.74;101743.19;5046748;28;1440;-76
2023/09/07 03:52:59;;;;;;;;;;;;;;;17.51;70.78;101742.34;5042623;28;1918;-76
2023/09/07 03:55:52;;;;;;;;;;;;;;;17.50;70.60;101748.88;5041638;28;1716;-76
2023/09/07 03:58:43;;;;;;;;;;;;;;;17.49;70.67;101749.94;5048934;28;1740;-77
2023/09/07 04:01:35;;;;;;;;;;;;;;;17.49;70.84;101750.75;5047143;28;1673;-76
2023/09/07 04:04:35;;;;;;;;;;;;;;;17.49;70.47;101749.94;5043710;28;1733;-77
2023/09/07 04:07:26;;;;;;;;;;;;;;;17.49;70.68;101744.47;5040170;28;1902;-77
2023/09/07 04:10:17;;;;;;;;;;;;;;;17.49;70.66;101750.75;5040959;28;1688;-76
2023/09/07 04:13:10;;;;;;;;;;;;;;;17.47;70.49;101744.72;5045707;28;1957;-78
2023/09/07 04:16:02;;;;;;;;;;;;;;;17.48;70.36;101751.00;5045261;28;1632;-77
2023/09/07 04:18:53;;;;;;;;;;;;;;;17.47;70.46;101747.47;5040705;28;1709;-76
2023/09/07 04:21:45;;;;;;;;;;;;;;;17.47;70.70;101744.72;5044065;28;1697;-76
2023/09/07 04:24:38;;;;;;;;;;;;;;;17.47;70.62;101741.16;5036760;28;2188;-78
2023/09/07 04:27:30;;;;;;;;;;;;;;;17.45;70.46;101735.97;5032074;28;2167;-77
2023/09/07 04:30:22;;;;;;;;;;;;;;;17.46;70.34;101734.06;5028083;28;5482;-77
2023/09/07 04:33:14;;;;;;;;;;;;;;;17.45;70.74;101738.69;5032214;28;2771;-79
2023/09/07 04:36:05;;;;;;;;;;;;;;;17.45;70.36;101737.84;5031940;28;4850;-78
2023/09/07 04:38:57;;;;;;;;;;;;;;;17.45;70.58;101743.31;5032591;28;2227;-78
2023/09/07 04:41:49;;;;;;;;;;;;;;;17.45;70.39;101738.69;5029105;28;2271;-78
2023/09/07 04:44:40;;;;;;;;;;;;;;;17.44;70.64;101744.34;5031721;28;2202;-77
2023/09/07 04:47:33;;;;;;;;;;;;;;;17.43;70.53;101748.97;5031748;28;5100;-78
2023/09/07 04:50:25;;;;;;;;;;;;;;;17.43;70.50;101748.16;5031138;28;2506;-76
2023/09/07 04:53:16;;;;;;;;;;;;;;;17.43;70.40;101745.44;5032752;28;2274;-77
2023/09/07 04:56:07;;;;;;;;;;;;;;;17.42;70.29;101744.59;5043563;28;1753;-76
2023/09/07 04:58:59;;;;;;;;;;;;;;;17.42;70.56;101741.06;5039332;28;2204;-76
2023/09/07 05:01:51;;;;;;;;;;;;;;;17.41;70.33;101733.94;5037849;28;2111;-77
2023/09/07 05:04:43;;;;;;;;;;;;;;;17.39;70.48;101745.06;5035204;28;2206;-76
2023/09/07 05:07:35;;;;;;;;;;;;;;;17.39;70.22;101745.06;5036158;28;2218;-76
2023/09/07 05:10:27;;;;;;;;;;;;;;;17.41;70.52;101750.28;5051493;28;1942;-78
2023/09/07 05:13:19;;;;;;;;;;;;;;;17.39;70.27;101752.41;5047651;28;1629;-76
2023/09/07 05:16:10;;;;;;;;;;;;;;;17.38;70.24;101759.78;5044318;28;1697;-75
2023/09/07 05:19:03;;;;;;;;;;;;;;;17.38;70.32;101753.47;5047745;28;2162;-77
2023/09/07 05:21:54;;;;;;;;;;;;;;;17.37;70.36;101754.53;5046723;28;2546;-77
2023/09/07 05:24:47;;;;;;;;;;;;;;;17.37;70.30;101755.38;5044827;28;1952;-77
2023/09/07 05:27:38;;;;;;;;;;;;;;;17.37;70.54;101762.72;5041034;28;1899;-78
2023/09/07 05:30:31;;;;;;;;;;;;;;;17.36;70.62;101763.78;5050227;28;1739;-78
2023/09/07 05:33:22;;;;;;;;;;;;;;;17.35;70.28;101752.03;5042972;28;1768;-78
2023/09/07 05:36:14;;;;;;;;;;;;;;;17.35;70.35;101764.84;5046504;28;1689;-76
2023/09/07 05:39:06;;;;;;;;;;;;;;;17.35;70.34;101765.66;5050473;28;1768;-77
2023/09/07 05:41:58;;;;;;;;;;;;;;;17.35;70.25;101762.09;5042304;28;1793;-75
2023/09/07 05:44:50;;;;;;;;;;;;;;;17.34;70.22;101755.03;5045103;28;1115;-76
2023/09/07 05:47:43;;;;;;;;;;;;;;;17.33;70.44;101759.63;5048754;28;1936;-76
2023/09/07 05:50:35;;;;;;;;;;;;;;;17.33;70.39;101756.91;5050827;28;1605;-79
2023/09/07 05:53:27;;;;;;;;;;;;;;;17.32;70.39;101768.84;5049731;28;1317;-77
2023/09/07 05:56:18;;;;;;;;;;;;;;;17.33;70.20;101761.53;5042810;28;2114;-77
2023/09/07 05:59:10;;;;;;;;;;;;;;;17.32;70.18;101768.84;5045403;28;1898;-76
2023/09/07 06:02:03;;;;;;;;;;;;;;;17.31;70.16;101774.53;5036562;28;2450;-76
2023/09/07 06:04:56;;;;;;;;;;;;;;;17.31;70.24;101775.38;5034908;28;2143;-78
2023/09/07 06:07:47;;;;;;;;;;;;;;;17.31;70.33;101780.00;5034884;28;2110;-76
2023/09/07 06:10:39;;;;;;;;;;;;;;;17.30;70.39;101787.34;5034796;28;2181;-76
2023/09/07 06:13:30;;;;;;;;;;;;;;;17.30;70.24;101790.06;5050011;28;1699;-76
2023/09/07 06:16:22;;;;;;;;;;;;;;;17.29;70.38;101784.84;5043678;28;992;-76
2023/09/07 06:19:15;;;;;;;;;;;;;;;17.28;70.40;101784.00;5049903;28;1821;-77
2023/09/07 06:22:07;;;;;;;;;;;;;;;17.29;70.07;101791.09;5042950;28;2230;-80
2023/09/07 06:24:59;;;;;;;;;;;;;;;17.28;70.08;101788.63;5033633;28;2174;-77
2023/09/07 06:27:51;;;;;;;;;;;;;;;17.27;70.22;101801.41;5034612;28;2223;-75
2023/09/07 06:30:43;;;;;;;;;;;;;;;17.28;70.27;101800.34;5035206;28;2139;-78
2023/09/07 06:33:35;;;;;;;;;;;;;;;17.27;70.02;101808.75;5034729;28;2139;-78
2023/09/07 06:36:26;;;;;;;;;;;;;;;17.27;70.34;101812.31;5038282;28;2285;-78
2023/09/07 06:39:18;;;;;;;;;;;;;;;17.27;70.05;101806.03;5035768;28;2199;-76
2023/09/07 06:42:10;;;;;;;;;;;;;;;17.25;70.08;101807.09;5035724;28;2128;-78
2023/09/07 06:45:02;;;;;;;;;;;;;;;17.27;70.33;101808.75;5033989;28;2116;-78
2023/09/07 06:47:53;;;;;;;;;;;;;;;17.27;70.30;101806.88;5035938;28;2187;-75
2023/09/07 06:50:45;;;;;;;;;;;;;;;17.25;70.20;101817.97;5036184;28;2118;-77
2023/09/07 06:53:38;;;;;;;;;;;;;;;17.26;70.24;101821.53;5033308;28;2214;-77
2023/09/07 06:56:31;;;;;;;;;;;;;;;17.25;70.09;101820.69;5035398;28;2123;-79
2023/09/07 06:59:22;;;;;;;;;;;;;;;17.24;70.12;101816.31;5031499;28;5963;-78
2023/09/07 07:02:15;;;;;;;;;;;;;;;17.25;70.15;101820.69;5035969;28;5420;-77
2023/09/07 07:05:07;;;;;;;;;;;;;;;17.25;70.36;101822.59;5032020;28;4894;-76
2023/09/07 07:07:59;;;;;;;;;;;;;;;17.24;70.24;101832.66;5032354;28;2194;-76
2023/09/07 07:10:51;;;;;;;;;;;;;;;17.25;70.21;101822.59;5035141;28;2188;-75
2023/09/07 07:13:43;;;;;;;;;;;;;;;17.24;70.24;101815.50;5034260;28;2200;-77
2023/09/07 07:16:34;;;;;;;;;;;;;;;17.24;70.32;101819.03;5031144;28;2227;-77
2023/09/07 07:19:26;;;;;;;;;;;;;;;17.25;70.25;101808.97;5032631;28;2491;-75
2023/09/07 07:22:19;;;;;;;;;;;;;;;17.22;70.09;101804.84;5034640;28;2115;-77
2023/09/07 07:25:10;;;;;;;;;;;;;;;17.24;70.05;101805.44;5039921;28;2123;-77
2023/09/07 07:28:05;;;;;;;;;;;;;;;17.23;70.16;101805.66;5045211;28;1910;-75
2023/09/07 07:30:56;;;;;;;;;;;;;;;17.23;69.99;101805.66;5045296;28;2132;-77
2023/09/07 07:33:49;;;;;;;;;;;;;;;17.23;70.03;101795.59;5040392;28;1970;-77
2023/09/07 07:36:41;;;;;;;;;;;;;;;17.23;70.20;101798.31;5046800;28;1269;-76
2023/09/07 07:39:32;;;;;;;;;;;;;;;17.23;70.02;101792.03;5048428;28;1240;-76
2023/09/07 07:42:24;;;;;;;;;;;;;;;17.22;69.87;101799.38;5029155;28;2252;-75
2023/09/07 07:45:19;;;;;;;;;;;;;;;17.22;70.09;101799.38;5030768;28;2533;-76
2023/09/07 07:48:11;;;;;;;;;;;;;;;17.23;70.33;101811.91;5033445;28;5608;-76
2023/09/07 07:51:03;;;;;;;;;;;;;;;17.24;70.23;101804.59;5035010;28;6014;-75
2023/09/07 07:53:55;;;;;;;;;;;;;;;17.23;70.29;101795.59;5033736;28;2374;-76
2023/09/07 07:56:47;;;;;;;;;;;;;;;17.22;70.26;101804.84;5028369;28;2191;-77
2023/09/07 07:59:39;;;;;;;;;;;;;;;17.22;70.23;101791.22;5036321;28;2158;-72
2023/09/07 08:02:30;;;;;;;;;;;;;;;17.21;70.24;101795.00;5026828;28;2089;-75
2023/09/07 08:05:23;;;;;;;;;;;;;;;17.23;70.16;101800.22;5032647;28;2218;-75
2023/09/07 08:08:15;;;;;;;;;;;;;;;17.22;70.26;101793.94;5041402;28;2167;-73
2023/09/07 08:11:07;;;;;;;;;;;;;;;17.22;70.27;101790.41;5031780;28;2549;-75
2023/09/07 08:13:59;;;;;;;;;;;;;;;17.22;70.09;101796.66;5034927;28;2147;-76
2023/09/07 08:16:51;;;;;;;;;;;;;;;17.22;70.12;101810.28;5032161;28;2536;-76
2023/09/07 08:19:43;;;;;;;;;;;;;;;17.22;70.23;101810.28;5031718;28;2260;-78
2023/09/07 08:22:36;;;;;;;;;;;;;;;17.22;70.15;101796.66;5033244;28;2250;-73
2023/09/07 08:25:27;;;;;;;;;;;;;;;17.22;70.03;101796.66;5048758;28;1775;-76
2023/09/07 08:28:22;;;;;;;;;;;;;;;17.22;70.10;101804.00;5028083;28;5617;-77
2023/09/07 08:31:20;;;;;;;;;;;;;;;17.22;70.28;101796.66;5036282;28;2252;-77
2023/09/07 08:34:11;;;;;;;;;;;;;;;17.22;70.40;101793.94;5029995;28;5104;-76
2023/09/07 08:37:05;;;;;;;;;;;;;;;17.22;70.21;101791.22;5030819;28;2530;-76
2023/09/07 08:39:57;;;;;;;;;;;;;;;17.23;70.22;101786.59;5038083;28;2173;-77
2023/09/07 08:42:49;;;;;;;;;;;;;;;17.22;70.14;101801.28;5035628;28;2568;-79
2023/09/07 08:45:41;;;;;;;;;;;;;;;17.22;70.37;101799.38;5034858;28;4440;-77
2023/09/07 08:48:33;;;;;;;;;;;;;;;17.22;70.46;101801.28;5034401;28;2608;-76
2023/09/07 08:51:27;;;;;;;;;;;;;;;17.22;70.36;101796.66;5033919;28;2123;-78
2023/09/07 08:54:19;;;;;;;;;;;;;;;17.22;70.17;101791.22;5039112;28;2088;-77
2023/09/07 08:57:11;;;;;;;;;;;;;;;17.22;70.29;101793.94;5034761;28;2153;-76
2023/09/07 09:00:08;;;;;;;;;;;;;;;17.22;70.42;101788.50;5032440;28;2453;-77
2023/09/07 09:02:59;;;;;;;;;;;;;;;17.22;70.21;101791.22;5032791;28;2179;-79
2023/09/07 09:05:52;;;;;;;;;;;;;;;17.22;70.32;101785.78;5033355;28;2493;-76
2023/09/07 09:08:44;;;;;;;;;;;;;;;17.23;70.40;101795.59;5040681;28;2311;-77
2023/09/07 09:11:36;;;;;;;;;;;;;;;17.23;70.28;101794.75;5054693;28;1954;-76
2023/09/07 09:14:28;;;;;;;;;;;;;;;17.22;70.43;101791.22;5052412;28;906;-77
2023/09/07 09:17:20;;;;;;;;;;;;;;;17.23;70.29;101781.16;5035585;28;2513;-78
2023/09/07 09:20:12;;;;;;;;;;;;;;;17.23;70.28;101773.81;5031267;28;2246;-77
2023/09/07 09:23:04;;;;;;;;;;;;;;;17.23;70.51;101783.88;5033610;28;2351;-81
2023/09/07 09:25:56;;;;;;;;;;;;;;;17.24;70.44;101782.84;5034018;28;2445;-76
2023/09/07 09:28:50;;;;;;;;;;;;;;;17.24;70.62;101788.28;5023362;28;5765;-78
2023/09/07 09:31:42;;;;;;;;;;;;;;;17.23;70.48;101786.59;5032105;28;4952;-77
2023/09/07 09:34:33;;;;;;;;;;;;;;;17.23;70.45;101789.31;5032731;28;5023;-75
2023/09/07 09:37:25;;;;;;;;;;;;;;;17.24;70.24;101791.00;5036114;28;2206;-76
2023/09/07 09:40:17;;;;;;;;;;;;;;;17.24;70.58;101789.09;5035040;28;2698;-74
2023/09/07 09:43:08;;;;;;;;;;;;;;;17.24;70.55;101788.28;5032684;28;2482;-77
2023/09/07 09:46:01;;;;;;;;;;;;;;;17.25;70.54;101787.19;5043662;28;2432;-78
2023/09/07 09:48:53;;;;;;;;;;;;;;;17.24;70.54;101794.53;5032952;28;4142;-77
2023/09/07 09:51:45;;;;;;;;;;;;;;;17.24;70.53;101791.00;5037113;28;2147;-77
2023/09/07 09:54:38;;;;;;;;;;;;;;;17.23;70.46;101795.59;5034450;28;2212;-78
2023/09/07 09:57:30;;;;;;;;;;;;;;;17.24;70.24;101783.66;5034116;28;2108;-77
2023/09/07 10:00:25;;;;;;;;;;;;;;;17.24;70.26;101794.53;5034718;28;2546;-76
2023/09/07 10:03:17;;;;;;;;;;;;;;;17.25;70.47;101773.59;5034241;28;2538;-78
2023/09/07 10:06:09;;;;;;;;;;;;;;;17.25;70.26;101776.31;5037492;28;2417;-77
2023/09/07 10:09:01;;;;;;;;;;;;;;;17.25;70.33;101779.84;5033658;28;2470;-77
2023/09/07 10:11:53;;;;;;;;;;;;;;;17.25;70.33;101776.31;5045079;28;2144;-77
2023/09/07 10:14:50;;;;;;;;;;;;;;;17.25;70.53;101774.41;5053455;28;1253;-77
2023/09/07 10:17:41;;;;;;;;;;;;;;;17.27;70.38;101778.81;5048111;28;1745;-77
2023/09/07 10:20:33;;;;;;;;;;;;;;;17.25;70.35;101770.88;5048497;28;2013;-77
2023/09/07 10:23:25;;;;;;;;;;;;;;;17.25;70.36;101773.59;5050239;28;1597;-77
2023/09/07 10:26:17;;;;;;;;;;;;;;;17.26;70.54;101772.50;5054015;28;1238;-78
2023/09/07 10:29:09;;;;;;;;;;;;;;;17.27;70.62;101781.53;5046685;28;1910;-79
2023/09/07 10:32:01;;;;;;;;;;;;;;;17.26;70.61;101772.50;5048799;28;1717;-78
2023/09/07 10:34:53;;;;;;;;;;;;;;;17.28;70.35;101775.03;5043947;28;929;-79
2023/09/07 10:37:44;;;;;;;;;;;;;;;17.27;70.37;101773.38;5047810;28;1344;-77
2023/09/07 10:40:36;;;;;;;;;;;;;;;17.26;70.60;101769.78;5041910;28;2104;-76
2023/09/07 10:43:28;;;;;;;;;;;;;;;17.26;70.49;101775.25;5036365;28;2218;-77
2023/09/07 10:46:20;;;;;;;;;;;;;;;17.27;70.56;101774.19;5034578;28;2629;-79
2023/09/07 10:49:12;;;;;;;;;;;;;;;17.28;70.59;101777.75;5038692;28;2124;-78
2023/09/07 10:52:04;;;;;;;;;;;;;;;17.28;70.60;101775.84;5032143;28;2294;-76
2023/09/07 10:54:56;;;;;;;;;;;;;;;17.27;70.54;101774.19;5036257;28;2253;-77
2023/09/07 10:57:48;;;;;;;;;;;;;;;17.28;70.41;101770.41;5036191;28;2115;-79
2023/09/07 11:00:40;;;;;;;;;;;;;;;17.28;70.70;101764.94;5036619;28;2496;-77
2023/09/07 11:03:32;;;;;;;;;;;;;;;17.28;70.47;101761.41;5044447;28;2079;-78
2023/09/07 11:06:24;;;;;;;;;;;;;;;17.27;70.73;101774.19;5050806;28;2176;-77
2023/09/07 11:09:16;;;;;;;;;;;;;;;17.29;70.60;101760.34;5040778;28;2672;-79
2023/09/07 11:12:08;;;;;;;;;;;;;;;17.29;70.72;101773.94;5050633;28;1682;-79
2023/09/07 11:15:00;;;;;;;;;;;;;;;17.28;70.79;101770.41;5050234;28;1806;-77
2023/09/07 11:17:52;;;;;;;;;;;;;;;17.28;70.62;101773.13;5046085;28;1989;-79
2023/09/07 11:20:43;;;;;;;;;;;;;;;17.29;70.61;101773.94;5049524;28;1702;-79
2023/09/07 11:23:37;;;;;;;;;;;;;;;17.29;70.68;101773.94;5057034;28;1465;-79
2023/09/07 11:26:32;;;;;;;;;;;;;;;17.29;70.55;101768.50;5048900;28;1772;-76
2023/09/07 11:29:23;;;;;;;;;;;;;;;17.29;70.63;101757.59;5048661;28;1906;-75
2023/09/07 11:32:21;;;;;;;;;;;;;;;17.29;70.72;101750.25;5053070;28;1403;-76
2023/09/07 11:35:12;;;;;;;;;;;;;;;17.29;70.73;101749.44;5039950;28;2112;-76
2023/09/07 11:38:04;;;;;;;;;;;;;;;17.29;70.72;101749.44;5033883;28;2561;-76
2023/09/07 11:40:56;;;;;;;;;;;;;;;17.31;70.71;101752.75;5035193;28;2226;-77
2023/09/07 11:43:48;;;;;;;;;;;;;;;17.30;70.75;101749.22;5035440;28;2127;-78
2023/09/07 11:46:39;;;;;;;;;;;;;;;17.30;70.69;101760.09;5034115;28;2132;-77
2023/09/07 11:49:31;;;;;;;;;;;;;;;17.30;70.46;101754.66;5037028;28;2493;-77
2023/09/07 11:52:22;;;;;;;;;;;;;;;17.31;70.81;101755.50;5032085;28;2123;-79
2023/09/07 11:55:14;;;;;;;;;;;;;;;17.31;70.78;101748.16;5032393;28;2277;-80
2023/09/07 11:58:06;;;;;;;;;;;;;;;17.32;70.77;101754.41;5030038;28;2479;-78
2023/09/07 12:00:58;;;;;;;;;;;;;;;17.31;70.62;101761.75;5027267;28;5554;-77
2023/09/07 12:03:50;;;;;;;;;;;;;;;17.31;70.60;101753.59;5036636;28;2186;-77
2023/09/07 12:06:42;;;;;;;;;;;;;;;17.32;70.47;101754.41;5051012;28;5347;-76
2023/09/07 12:09:34;;;;;;;;;;;;;;;17.32;70.60;101748.97;5045997;28;1903;-76
2023/09/07 12:12:25;;;;;;;;;;;;;;;17.31;70.82;101748.16;5041876;28;1329;-78
2023/09/07 12:15:17;;;;;;;;;;;;;;;17.32;70.78;101747.06;5036647;28;2103;-78
2023/09/07 12:18:09;;;;;;;;;;;;;;;17.32;70.79;101744.34;5049523;28;4441;-77
2023/09/07 12:21:01;;;;;;;;;;;;;;;17.33;70.79;101750.66;5057308;28;1498;-79
2023/09/07 12:23:53;;;;;;;;;;;;;;;17.32;70.58;101741.63;5046807;28;2013;-77
2023/09/07 12:26:45;;;;;;;;;;;;;;;17.32;70.51;101744.34;5047428;28;1598;-75
2023/09/07 12:29:37;;;;;;;;;;;;;;;17.33;70.62;101742.47;5041595;28;2168;-76
2023/09/07 12:32:29;;;;;;;;;;;;;;;17.32;70.80;101733.44;5044097;28;1363;-77
2023/09/07 12:35:21;;;;;;;;;;;;;;;17.34;70.77;101744.13;5042687;28;2216;-79
2023/09/07 12:38:17;;;;;;;;;;;;;;;17.33;70.54;101734.31;5035096;28;2199;-75
2023/09/07 12:41:08;;;;;;;;;;;;;;;17.33;70.70;101737.84;5046717;28;2112;-76
2023/09/07 12:43:59;;;;;;;;;;;;;;;17.34;70.77;101738.69;5040540;28;2706;-76
2023/09/07 12:46:51;;;;;;;;;;;;;;;17.34;70.78;101731.34;5049514;28;1737;-79
2023/09/07 12:49:43;;;;;;;;;;;;;;;17.34;70.50;101733.22;5045359;28;1894;-80
2023/09/07 12:52:37;;;;;;;;;;;;;;;17.34;70.65;101734.06;5048526;28;1691;-76
2023/09/07 12:55:29;;;;;;;;;;;;;;;17.34;70.56;101727.78;5044545;28;1654;-76
2023/09/07 12:58:21;;;;;;;;;;;;;;;17.35;70.71;101724.00;5047924;28;1554;-79
2023/09/07 13:01:15;;;;;;;;;;;;;;;17.35;70.78;101716.66;5040996;28;1966;-77
2023/09/07 13:04:07;;;;;;;;;;;;;;;17.35;70.73;101707.66;5045916;28;1830;-78
2023/09/07 13:07:00;;;;;;;;;;;;;;;17.34;70.66;101704.09;5047438;28;1982;-77
2023/09/07 13:09:51;;;;;;;;;;;;;;;17.35;70.73;101708.47;5047567;28;1906;-78
2023/09/07 13:12:43;;;;;;;;;;;;;;;17.35;70.61;101703.03;5043515;28;1637;-77
2023/09/07 13:15:34;;;;;;;;;;;;;;;17.36;70.67;101695.72;5039594;28;2354;-78
2023/09/07 13:18:26;;;;;;;;;;;;;;;17.36;70.81;101687.53;5032797;28;2669;-77
2023/09/07 13:21:19;;;;;;;;;;;;;;;17.37;70.65;101686.47;5039785;28;2621;-79
2023/09/07 13:24:11;;;;;;;;;;;;;;;17.35;70.69;101689.41;5037585;28;2305;-77
2023/09/07 13:27:03;;;;;;;;;;;;;;;17.37;70.80;101681.03;5034196;28;2215;-76
2023/09/07 13:29:56;;;;;;;;;;;;;;;17.37;70.54;101689.19;5039107;28;2585;-78
2023/09/07 13:32:49;;;;;;;;;;;;;;;17.37;70.79;101681.84;5031157;28;2307;-76
2023/09/07 13:35:41;;;;;;;;;;;;;;;17.37;70.72;101681.84;5030387;28;2747;-75
2023/09/07 13:38:33;;;;;;;;;;;;;;;17.37;70.72;101679.13;5035393;28;2327;-77
2023/09/07 13:41:25;;;;;;;;;;;;;;;17.38;70.62;101682.66;5030795;28;2701;-79
2023/09/07 13:44:17;;;;;;;;;;;;;;;17.37;70.82;101679.13;5034130;28;2325;-78
2023/09/07 13:47:09;;;;;;;;;;;;;;;17.39;70.65;101668.00;5033170;28;2505;-76
2023/09/07 13:50:01;;;;;;;;;;;;;;;17.39;70.77;101674.28;5031584;28;2329;-78
2023/09/07 13:52:53;;;;;;;;;;;;;;;17.38;70.72;101660.88;5032895;28;2673;-78
2023/09/07 13:55:46;;;;;;;;;;;;;;;17.39;70.62;101663.38;5031829;28;2414;-76
2023/09/07 13:58:37;;;;;;;;;;;;;;;17.39;70.60;101668.00;5035400;28;2262;-79
2023/09/07 14:01:29;;;;;;;;;;;;;;;17.40;70.90;101673.19;5048558;28;2132;-78
2023/09/07 14:04:21;;;;;;;;;;;;;;;17.40;70.63;101667.75;5043781;28;2199;-77
2023/09/07 14:07:13;;;;;;;;;;;;;;;17.39;70.83;101666.13;5045896;28;1395;-79
2023/09/07 14:10:05;;;;;;;;;;;;;;;17.42;70.71;101678.44;5049460;28;1968;-79
2023/09/07 14:12:57;;;;;;;;;;;;;;;17.42;70.69;101686.59;5047033;28;2298;-76
2023/09/07 14:15:49;;;;;;;;;;;;;;;17.42;70.58;101667.53;5044048;28;2032;-77
2023/09/07 14:18:41;;;;;;;;;;;;;;;17.43;70.98;101674.63;5051068;28;1482;-79
2023/09/07 14:21:33;;;;;;;;;;;;;;;17.43;70.73;101678.16;5051472;28;943;-78
2023/09/07 14:24:25;;;;;;;;;;;;;;;17.42;70.93;101668.34;5043349;28;1874;-76
2023/09/07 14:27:17;;;;;;;;;;;;;;;17.43;70.95;101661.84;5048175;28;2159;-77
2023/09/07 14:30:09;;;;;;;;;;;;;;;17.43;70.86;101666.47;5040246;28;6324;-78
2023/09/07 14:33:01;;;;;;;;;;;;;;;17.45;70.89;101664.34;5045273;28;5201;-79
2023/09/07 14:35:54;;;;;;;;;;;;;;;17.44;70.94;101659.94;5043955;28;5061;-77
2023/09/07 14:38:45;;;;;;;;;;;;;;;17.44;70.75;101662.66;5047903;28;1909;-79
2023/09/07 14:41:37;;;;;;;;;;;;;;;17.45;70.76;101650.72;5044331;28;1364;-79
2023/09/07 14:44:29;;;;;;;;;;;;;;;17.45;70.85;101658.88;5050176;28;2384;-77
2023/09/07 14:47:25;;;;;;;;;;;;;;;17.45;70.79;101656.97;5047015;28;5138;-76
2023/09/07 14:50:17;;;;;;;;;;;;;;;17.46;70.81;101655.91;5041587;28;2262;-79
2023/09/07 14:53:09;;;;;;;;;;;;;;;17.46;70.70;101660.53;5047710;28;1575;-77
2023/09/07 14:56:01;;;;;;;;;;;;;;;17.47;70.97;101659.44;5041654;28;1255;-77